Time;durP1;ratioP1;P1;durP2;ratioP2;P2;SDS_P1;SDS_P2;PMS_P1;PMS_P2;Temp;Humidity;BMP_temperature;BMP_pressure;BME280_temperature;BME280_humidity;BME280_pressure;Samples;Min_cycle;Max_cycle;Signal;HPM_P1;HPM_P2
2022/08/08 00:00:55;;;;;;;21.40;19.50;;;;;;;;;;2133889;27;20182;-71
2022/08/08 00:01:57;;;;;;;21.08;19.13;;;;;;;;;;2133814;27;20267;-70
2022/08/08 00:03:01;;;;;;;21.13;19.42;;;;;;;;;;2124077;27;20202;-70
2022/08/08 00:04:05;;;;;;;20.83;19.23;;;;;;;;;;2116097;27;20223;-70
2022/08/08 00:05:10;;;;;;;21.08;19.27;;;;;;;;;;2125109;27;20191;-71
2022/08/08 00:06:16;;;;;;;21.10;19.38;;;;;;;;;;2133628;27;20160;-71
2022/08/08 00:07:20;;;;;;;23.23;19.75;;;;;;;;;;2133755;27;20168;-71
2022/08/08 00:08:24;;;;;;;21.20;19.40;;;;;;;;;;2124338;27;20216;-71
2022/08/08 00:09:28;;;;;;;20.80;19.00;;;;;;;;;;2125055;27;20212;-71
2022/08/08 00:10:31;;;;;;;21.50;19.35;;;;;;;;;;2133647;27;20188;-70
2022/08/08 00:11:37;;;;;;;20.63;19.02;;;;;;;;;;2133508;27;20713;-70
2022/08/08 00:12:42;;;;;;;20.55;18.88;;;;;;;;;;2133785;27;20172;-70
2022/08/08 00:13:47;;;;;;;20.48;18.88;;;;;;;;;;2124278;27;20287;-71
2022/08/08 00:14:50;;;;;;;20.80;19.20;;;;;;;;;;2116270;27;20205;-70
2022/08/08 00:15:57;;;;;;;20.60;18.75;;;;;;;;;;2124565;27;20196;-71
2022/08/08 00:17:05;;;;;;;20.95;19.02;;;;;;;;;;2123939;27;20203;-71
2022/08/08 00:18:10;;;;;;;20.80;19.08;;;;;;;;;;2125633;27;20207;-71
2022/08/08 00:19:15;;;;;;;21.20;19.40;;;;;;;;;;2133676;27;20183;-71
2022/08/08 00:20:18;;;;;;;20.75;19.15;;;;;;;;;;2133715;27;20247;-71
2022/08/08 00:21:22;;;;;;;21.35;19.52;;;;;;;;;;2133480;27;20179;-70
2022/08/08 00:22:24;;;;;;;21.23;19.38;;;;;;;;;;2133350;27;20203;-71
2022/08/08 00:23:28;;;;;;;21.67;19.92;;;;;;;;;;2123549;27;20188;-71
2022/08/08 00:24:31;;;;;;;21.40;19.60;;;;;;;;;;2125309;27;20217;-70
2022/08/08 00:25:36;;;;;;;21.50;19.65;;;;;;;;;;2133356;27;20187;-70
2022/08/08 00:26:41;;;;;;;21.10;19.33;;;;;;;;;;2123895;27;20296;-71
2022/08/08 00:27:42;;;;;;;21.77;19.63;;;;;;;;;;2124971;27;20213;-71
2022/08/08 00:28:46;;;;;;;20.88;19.08;;;;;;;;;;2124132;27;20212;-70
2022/08/08 00:29:48;;;;;;;21.08;19.35;;;;;;;;;;2125307;27;20212;-71
2022/08/08 00:30:52;;;;;;;21.20;19.30;;;;;;;;;;2124189;27;20190;-71
2022/08/08 00:31:55;;;;;;;21.40;19.42;;;;;;;;;;2116476;27;20295;-71
2022/08/08 00:32:57;;;;;;;20.98;19.27;;;;;;;;;;2124066;27;20700;-70
2022/08/08 00:35:36;;;;;;;20.80;19.00;;;;;;;;;;2123750;27;20183;-71
2022/08/08 00:36:40;;;;;;;20.50;18.88;;;;;;;;;;2126855;27;20188;-72
2022/08/08 00:37:45;;;;;;;21.25;19.02;;;;;;;;;;2134422;27;20649;-70
2022/08/08 00:38:49;;;;;;;20.90;19.10;;;;;;;;;;2133306;27;20190;-70
2022/08/08 00:39:53;;;;;;;20.30;18.80;;;;;;;;;;2124409;27;20203;-70
2022/08/08 00:41:12;;;;;;;20.90;19.20;;;;;;;;;;2115942;27;20238;-71
2022/08/08 00:42:31;;;;;;;20.35;18.75;;;;;;;;;;2118135;27;20224;-70
2022/08/08 00:43:57;;;;;;;20.52;18.77;;;;;;;;;;2118029;27;20210;-71
2022/08/08 00:45:02;;;;;;;21.00;19.20;;;;;;;;;;2127967;27;20638;-71
2022/08/08 00:46:14;;;;;;;20.85;19.20;;;;;;;;;;2133284;27;20176;-72
2022/08/08 00:47:29;;;;;;;20.75;19.08;;;;;;;;;;2133269;27;20196;-71
2022/08/08 00:48:45;;;;;;;21.35;19.40;;;;;;;;;;2124050;27;20182;-71
2022/08/08 00:50:07;;;;;;;21.05;19.25;;;;;;;;;;2126371;27;20177;-71
2022/08/08 00:51:25;;;;;;;20.80;19.10;;;;;;;;;;2133483;27;20562;-69
2022/08/08 00:52:44;;;;;;;21.65;19.40;;;;;;;;;;2124022;27;20649;-71
2022/08/08 00:53:59;;;;;;;21.35;19.50;;;;;;;;;;2126573;27;20554;-71
2022/08/08 00:55:19;;;;;;;20.85;19.23;;;;;;;;;;2123980;27;20761;-70
2022/08/08 00:56:38;;;;;;;21.52;19.42;;;;;;;;;;2118248;27;20253;-71
2022/08/08 00:58:04;;;;;;;21.25;19.50;;;;;;;;;;2125686;27;20196;-71
2022/08/08 00:59:26;;;;;;;21.20;19.50;;;;;;;;;;2123727;27;20204;-70
2022/08/08 01:00:29;;;;;;;20.67;19.08;;;;;;;;;;2084572;28;20646;-71
2022/08/08 01:01:38;;;;;;;20.05;18.45;;;;;;;;;;2124002;27;20191;-71
2022/08/08 01:03:19;;;;;;;20.55;18.95;;;;;;;;;;2127481;27;20183;-71
2022/08/08 01:04:37;;;;;;;20.80;19.13;;;;;;;;;;2124000;27;20188;-71
2022/08/08 01:05:56;;;;;;;20.95;19.25;;;;;;;;;;2083825;28;20276;-71
2022/08/08 01:07:23;;;;;;;20.60;19.00;;;;;;;;;;2117950;27;20184;-71
2022/08/08 01:08:43;;;;;;;20.92;19.25;;;;;;;;;;2108722;27;20219;-71
2022/08/08 01:10:03;;;;;;;21.08;19.25;;;;;;;;;;2123792;27;20280;-71
2022/08/08 01:11:14;;;;;;;20.65;18.77;;;;;;;;;;2126996;27;20183;-71
2022/08/08 01:12:46;;;;;;;20.90;19.23;;;;;;;;;;2124136;27;20301;-71
2022/08/08 01:14:10;;;;;;;21.27;19.40;;;;;;;;;;2123799;27;20200;-71
2022/08/08 01:15:30;;;;;;;21.05;19.35;;;;;;;;;;2118654;27;20207;-71
2022/08/08 01:16:56;;;;;;;21.45;19.58;;;;;;;;;;2117722;27;20455;-71
2022/08/08 01:18:09;;;;;;;20.90;19.20;;;;;;;;;;2093633;28;20556;-71
2022/08/08 01:19:26;;;;;;;20.88;19.27;;;;;;;;;;2090458;28;20247;-70
2022/08/08 01:20:37;;;;;;;20.83;18.85;;;;;;;;;;2115610;27;20205;-71
2022/08/08 01:21:51;;;;;;;21.20;19.48;;;;;;;;;;2117256;27;20280;-71
2022/08/08 01:23:11;;;;;;;21.30;19.40;;;;;;;;;;2125448;27;20244;-70
2022/08/08 01:24:28;;;;;;;21.52;19.77;;;;;;;;;;2124082;27;20184;-70
2022/08/08 01:25:43;;;;;;;21.38;19.50;;;;;;;;;;2123746;27;20207;-70
2022/08/08 01:27:20;;;;;;;21.27;19.40;;;;;;;;;;2124723;27;20168;-71
2022/08/08 01:28:33;;;;;;;21.42;19.70;;;;;;;;;;2127716;27;20180;-71
2022/08/08 01:29:45;;;;;;;21.55;19.85;;;;;;;;;;2124582;27;20233;-70
2022/08/08 01:30:59;;;;;;;21.27;19.58;;;;;;;;;;2116673;27;20196;-70
2022/08/08 01:32:21;;;;;;;21.52;19.83;;;;;;;;;;2117807;27;20218;-71
2022/08/08 01:33:45;;;;;;;21.42;19.50;;;;;;;;;;2127320;27;20172;-71
2022/08/08 01:34:59;;;;;;;21.15;19.40;;;;;;;;;;2123426;27;20701;-71
2022/08/08 01:36:12;;;;;;;21.58;19.65;;;;;;;;;;2116745;27;20207;-71
2022/08/08 01:37:47;;;;;;;21.38;19.50;;;;;;;;;;2117195;27;20208;-71
2022/08/08 01:39:04;;;;;;;21.70;19.80;;;;;;;;;;2094561;28;20202;-70
2022/08/08 01:40:20;;;;;;;21.00;19.30;;;;;;;;;;2089797;28;20224;-70
2022/08/08 01:41:26;;;;;;;20.67;18.98;;;;;;;;;;2083799;28;20186;-70
2022/08/08 01:42:32;;;;;;;21.30;19.42;;;;;;;;;;2090369;28;20190;-70
2022/08/08 01:43:41;;;;;;;21.40;19.45;;;;;;;;;;2090129;28;20178;-70
2022/08/08 01:44:57;;;;;;;20.52;18.92;;;;;;;;;;2115769;27;20207;-70
2022/08/08 01:46:03;;;;;;;21.08;19.25;;;;;;;;;;2123716;27;20627;-70
2022/08/08 01:47:11;;;;;;;21.13;19.42;;;;;;;;;;2116094;27;20714;-70
2022/08/08 01:48:18;;;;;;;21.90;19.90;;;;;;;;;;2115807;27;20188;-70
2022/08/08 01:49:28;;;;;;;21.52;19.63;;;;;;;;;;2115975;27;20551;-70
2022/08/08 01:50:35;;;;;;;20.85;19.25;;;;;;;;;;2116128;27;20197;-70
2022/08/08 01:51:47;;;;;;;21.17;19.30;;;;;;;;;;2124797;27;20176;-70
2022/08/08 01:52:52;;;;;;;20.40;18.90;;;;;;;;;;2123215;27;20197;-70
2022/08/08 01:53:56;;;;;;;21.27;19.42;;;;;;;;;;2115696;27;20284;-70
2022/08/08 01:55:06;;;;;;;21.52;19.83;;;;;;;;;;2123824;27;20183;-70
2022/08/08 01:56:09;;;;;;;21.63;19.75;;;;;;;;;;2123473;27;20193;-70
2022/08/08 01:57:17;;;;;;;21.50;19.70;;;;;;;;;;2115202;28;20640;-70
2022/08/08 01:58:28;;;;;;;22.00;19.90;;;;;;;;;;2115895;27;20189;-70
2022/08/08 01:59:36;;;;;;;21.90;20.02;;;;;;;;;;2116302;28;20327;-70
2022/08/08 02:00:42;;;;;;;21.73;19.92;;;;;;;;;;2124294;27;20190;-70
2022/08/08 02:02:04;;;;;;;21.65;19.95;;;;;;;;;;2123613;27;20180;-70
2022/08/08 02:03:16;;;;;;;21.73;19.80;;;;;;;;;;2123545;27;20553;-70
2022/08/08 02:04:20;;;;;;;22.13;20.23;;;;;;;;;;2116250;27;20185;-70
2022/08/08 02:05:27;;;;;;;21.85;19.95;;;;;;;;;;2123035;27;20767;-70
2022/08/08 02:06:38;;;;;;;21.67;19.67;;;;;;;;;;2123397;27;20184;-70
2022/08/08 02:07:56;;;;;;;22.23;20.50;;;;;;;;;;2117268;27;20185;-70
2022/08/08 02:09:00;;;;;;;21.90;20.10;;;;;;;;;;2123416;27;20204;-70
2022/08/08 02:10:22;;;;;;;21.83;19.88;;;;;;;;;;2124502;27;20192;-70
2022/08/08 02:11:29;;;;;;;21.23;19.52;;;;;;;;;;2123468;27;20517;-70
2022/08/08 02:12:32;;;;;;;21.38;19.67;;;;;;;;;;2115636;27;20173;-70
2022/08/08 02:13:36;;;;;;;20.70;18.90;;;;;;;;;;2115378;28;20197;-70
2022/08/08 02:14:41;;;;;;;21.13;19.42;;;;;;;;;;2123227;27;20199;-70
2022/08/08 02:15:52;;;;;;;20.50;18.65;;;;;;;;;;2124583;27;20233;-70
2022/08/08 02:16:57;;;;;;;21.30;19.52;;;;;;;;;;2132130;27;20330;-70
2022/08/08 02:18:05;;;;;;;20.92;19.17;;;;;;;;;;2132618;27;20254;-70
2022/08/08 02:19:11;;;;;;;20.95;19.25;;;;;;;;;;2123303;27;20569;-70
2022/08/08 02:20:16;;;;;;;20.83;18.92;;;;;;;;;;2115414;27;20304;-70
2022/08/08 02:22:47;;;;;;;20.83;18.90;;;;;;;;;;2123322;27;20196;-70
2022/08/08 02:23:50;;;;;;;20.88;19.05;;;;;;;;;;2115590;28;20271;-70
2022/08/08 02:24:54;;;;;;;20.65;18.95;;;;;;;;;;2123732;27;20184;-70
2022/08/08 02:25:59;;;;;;;20.77;19.02;;;;;;;;;;2123267;28;20191;-70
2022/08/08 02:27:03;;;;;;;21.40;19.60;;;;;;;;;;2115289;28;20188;-70
2022/08/08 02:28:08;;;;;;;20.67;18.90;;;;;;;;;;2123501;28;20207;-70
2022/08/08 02:29:23;;;;;;;20.92;19.05;;;;;;;;;;2115233;28;20185;-70
2022/08/08 02:30:37;;;;;;;20.20;18.55;;;;;;;;;;2117232;28;20237;-70
2022/08/08 02:31:41;;;;;;;20.80;18.80;;;;;;;;;;2123319;28;20188;-70
2022/08/08 02:33:00;;;;;;;20.20;18.60;;;;;;;;;;2123235;28;20195;-70
2022/08/08 02:34:04;;;;;;;20.45;18.70;;;;;;;;;;2126232;27;20175;-70
2022/08/08 02:35:21;;;;;;;20.88;19.02;;;;;;;;;;2123242;28;20195;-70
2022/08/08 02:36:39;;;;;;;20.45;18.70;;;;;;;;;;2118207;28;20195;-70
2022/08/08 02:37:49;;;;;;;20.73;19.02;;;;;;;;;;2116050;28;20208;-70
2022/08/08 02:38:54;;;;;;;21.02;19.17;;;;;;;;;;2115832;28;20177;-70
2022/08/08 02:40:03;;;;;;;21.08;19.38;;;;;;;;;;2115655;28;20174;-70
2022/08/08 02:41:24;;;;;;;20.50;18.80;;;;;;;;;;2124537;27;20278;-70
2022/08/08 02:42:52;;;;;;;20.92;19.10;;;;;;;;;;2123311;28;20187;-70
2022/08/08 02:44:00;;;;;;;21.73;19.73;;;;;;;;;;2118519;28;20200;-70
2022/08/08 02:45:19;;;;;;;20.83;19.27;;;;;;;;;;2124482;27;20165;-70
2022/08/08 02:46:42;;;;;;;21.55;19.65;;;;;;;;;;2123991;27;20200;-70
2022/08/08 02:47:58;;;;;;;20.90;19.33;;;;;;;;;;2114050;27;20188;-70
2022/08/08 02:49:22;;;;;;;20.50;18.90;;;;;;;;;;2127441;27;20216;-70
2022/08/08 02:50:34;;;;;;;20.60;18.95;;;;;;;;;;2118109;27;20593;-70
2022/08/08 02:52:01;;;;;;;21.25;19.35;;;;;;;;;;2117941;27;20216;-70
2022/08/08 02:53:20;;;;;;;21.42;19.60;;;;;;;;;;2091030;28;20302;-70
2022/08/08 02:54:36;;;;;;;21.33;19.38;;;;;;;;;;2123622;27;20196;-70
2022/08/08 02:56:00;;;;;;;21.05;19.35;;;;;;;;;;2134402;27;20251;-70
2022/08/08 02:57:29;;;;;;;21.00;19.30;;;;;;;;;;2124960;27;20710;-70
2022/08/08 02:58:51;;;;;;;21.10;18.98;;;;;;;;;;2119998;27;20183;-70
2022/08/08 03:00:19;;;;;;;20.45;18.77;;;;;;;;;;2099129;27;20218;-70
2022/08/08 03:01:34;;;;;;;19.98;18.58;;;;;;;;;;2120288;27;20196;-70
2022/08/08 03:02:50;;;;;;;20.05;18.63;;;;;;;;;;2118222;27;20526;-70
2022/08/08 03:04:05;;;;;;;20.88;18.80;;;;;;;;;;2125209;27;20343;-70
2022/08/08 03:05:38;;;;;;;19.58;18.27;;;;;;;;;;2092997;28;20237;-70
2022/08/08 03:06:57;;;;;;;20.23;18.50;;;;;;;;;;2124785;27;20196;-70
2022/08/08 03:08:29;;;;;;;19.90;18.40;;;;;;;;;;2118806;27;20181;-70
2022/08/08 03:09:53;;;;;;;20.33;18.63;;;;;;;;;;2095025;28;20198;-70
2022/08/08 03:11:14;;;;;;;21.83;19.92;;;;;;;;;;2090951;28;20685;-70
2022/08/08 03:12:29;;;;;;;20.70;19.00;;;;;;;;;;2113285;27;20678;-70
2022/08/08 03:13:53;;;;;;;20.30;18.80;;;;;;;;;;2125235;27;20196;-70
2022/08/08 03:15:05;;;;;;;21.13;19.20;;;;;;;;;;2099056;27;20252;-70
2022/08/08 03:16:16;;;;;;;20.50;18.90;;;;;;;;;;2124755;27;20204;-70
2022/08/08 03:17:21;;;;;;;20.80;18.90;;;;;;;;;;2117648;27;20295;-70
2022/08/08 03:18:24;;;;;;;20.25;18.70;;;;;;;;;;2125322;27;20189;-70
2022/08/08 03:19:49;;;;;;;20.02;18.42;;;;;;;;;;2133925;27;20262;-70
2022/08/08 03:20:51;;;;;;;19.92;18.38;;;;;;;;;;2124732;27;20196;-70
2022/08/08 03:21:55;;;;;;;20.35;18.75;;;;;;;;;;2116893;27;20188;-70
2022/08/08 03:22:57;;;;;;;20.00;18.40;;;;;;;;;;2124650;27;20287;-70
2022/08/08 03:24:03;;;;;;;19.75;18.25;;;;;;;;;;2124710;27;20267;-70
2022/08/08 03:25:05;;;;;;;19.38;17.92;;;;;;;;;;2124580;27;20234;-70
2022/08/08 03:26:07;;;;;;;20.90;19.10;;;;;;;;;;2124678;27;20220;-70
2022/08/08 03:27:11;;;;;;;20.77;18.92;;;;;;;;;;2124617;27;20192;-70
2022/08/08 03:28:15;;;;;;;20.70;18.73;;;;;;;;;;2124395;27;20192;-70
2022/08/08 03:29:20;;;;;;;20.02;18.30;;;;;;;;;;2125067;27;20662;-70
2022/08/08 03:30:22;;;;;;;19.90;18.30;;;;;;;;;;2133335;27;20171;-70
2022/08/08 03:34:04;;;;;;;19.88;18.27;;;;;;;;;;2124984;27;20188;-70
2022/08/08 03:35:06;;;;;;;19.70;18.02;;;;;;;;;;2124577;27;20188;-70
2022/08/08 03:36:12;;;;;;;21.00;19.20;;;;;;;;;;2124828;27;20555;-70
2022/08/08 03:37:16;;;;;;;20.50;18.55;;;;;;;;;;2124543;27;20223;-70
2022/08/08 03:38:20;;;;;;;20.27;18.65;;;;;;;;;;2116430;27;20193;-70
2022/08/08 03:39:22;;;;;;;20.50;18.80;;;;;;;;;;2116731;27;20207;-70
2022/08/08 03:40:23;;;;;;;20.30;18.70;;;;;;;;;;2116038;27;20283;-70
2022/08/08 03:41:30;;;;;;;20.20;18.50;;;;;;;;;;2124489;27;20196;-70
2022/08/08 03:42:31;;;;;;;20.48;18.88;;;;;;;;;;2124665;27;20595;-70
2022/08/08 03:43:34;;;;;;;20.90;19.00;;;;;;;;;;2124792;27;20180;-70
2022/08/08 03:44:37;;;;;;;19.63;18.20;;;;;;;;;;2124531;27;20196;-70
2022/08/08 03:45:41;;;;;;;20.15;18.50;;;;;;;;;;2116387;27;20185;-70
2022/08/08 03:46:43;;;;;;;20.40;18.70;;;;;;;;;;2124737;27;20670;-70
2022/08/08 03:47:45;;;;;;;19.95;18.42;;;;;;;;;;2124082;27;20613;-70
2022/08/08 03:48:53;;;;;;;20.00;18.50;;;;;;;;;;2124829;27;20191;-70
2022/08/08 03:49:54;;;;;;;19.90;18.40;;;;;;;;;;2133892;27;20170;-71
2022/08/08 03:50:54;;;;;;;20.25;18.48;;;;;;;;;;2133680;27;20191;-70
2022/08/08 03:51:56;;;;;;;20.40;18.27;;;;;;;;;;2133732;27;20183;-70
2022/08/08 03:53:02;;;;;;;19.65;18.13;;;;;;;;;;2124431;27;20184;-70
2022/08/08 03:54:04;;;;;;;19.73;17.98;;;;;;;;;;2116003;27;20197;-70
2022/08/08 03:55:08;;;;;;;21.50;18.50;;;;;;;;;;2124467;27;20196;-70
2022/08/08 03:56:09;;;;;;;19.40;17.85;;;;;;;;;;2124897;27;20247;-70
2022/08/08 03:57:12;;;;;;;19.60;17.95;;;;;;;;;;2124273;27;20265;-70
2022/08/08 03:58:17;;;;;;;20.00;18.30;;;;;;;;;;2115045;27;20220;-70
2022/08/08 03:59:18;;;;;;;20.58;18.63;;;;;;;;;;2124827;27;20223;-70
2022/08/08 04:00:20;;;;;;;19.83;18.17;;;;;;;;;;2124393;27;20193;-70
2022/08/08 04:01:33;;;;;;;20.10;18.50;;;;;;;;;;2117228;27;20679;-70
2022/08/08 04:02:34;;;;;;;20.40;18.45;;;;;;;;;;2116411;27;20185;-71
2022/08/08 04:03:35;;;;;;;19.58;18.00;;;;;;;;;;2115854;28;20197;-70
2022/08/08 04:04:38;;;;;;;19.73;18.23;;;;;;;;;;2115990;27;20557;-70
2022/08/08 04:05:39;;;;;;;19.23;17.85;;;;;;;;;;2115997;27;20197;-70
2022/08/08 04:06:54;;;;;;;19.75;18.25;;;;;;;;;;2116469;27;20193;-70
2022/08/08 04:07:56;;;;;;;19.60;18.10;;;;;;;;;;2125745;27;20229;-70
2022/08/08 04:08:57;;;;;;;19.97;18.17;;;;;;;;;;2124311;27;20718;-70
2022/08/08 04:10:00;;;;;;;19.55;17.95;;;;;;;;;;2115927;28;20193;-70
2022/08/08 04:11:02;;;;;;;20.17;18.48;;;;;;;;;;2124498;27;20270;-70
2022/08/08 04:12:03;;;;;;;20.90;18.90;;;;;;;;;;2124250;27;20282;-70
2022/08/08 04:13:14;;;;;;;20.33;18.70;;;;;;;;;;2117206;27;20188;-70
2022/08/08 04:14:15;;;;;;;19.35;17.92;;;;;;;;;;2124247;27;20207;-70
2022/08/08 04:15:19;;;;;;;20.05;18.45;;;;;;;;;;2115867;27;20223;-71
2022/08/08 04:16:19;;;;;;;20.00;18.50;;;;;;;;;;2124467;27;20188;-70
2022/08/08 04:17:21;;;;;;;20.47;18.87;;;;;;;;;;2115858;28;20193;-71
2022/08/08 04:18:22;;;;;;;20.50;18.70;;;;;;;;;;2115849;28;20200;-71
2022/08/08 04:19:23;;;;;;;20.10;18.40;;;;;;;;;;2124435;27;20177;-71
2022/08/08 04:20:24;;;;;;;20.45;18.88;;;;;;;;;;2133510;27;20193;-71
2022/08/08 04:21:26;;;;;;;20.38;18.67;;;;;;;;;;2124180;27;20206;-71
2022/08/08 04:22:30;;;;;;;20.25;18.75;;;;;;;;;;2124290;27;20242;-71
2022/08/08 04:23:33;;;;;;;19.48;18.17;;;;;;;;;;2115898;28;20563;-71
2022/08/08 04:24:33;;;;;;;19.63;18.00;;;;;;;;;;2115757;28;20196;-71
2022/08/08 04:25:39;;;;;;;19.20;17.80;;;;;;;;;;2116003;27;20192;-71
2022/08/08 04:26:39;;;;;;;19.33;17.92;;;;;;;;;;2124210;27;20283;-71
2022/08/08 04:27:41;;;;;;;19.67;18.13;;;;;;;;;;2115690;28;20227;-71
2022/08/08 04:28:41;;;;;;;20.52;18.00;;;;;;;;;;2124402;27;20240;-71
2022/08/08 04:29:44;;;;;;;19.67;18.08;;;;;;;;;;2124134;27;20188;-71
2022/08/08 04:30:46;;;;;;;19.52;17.90;;;;;;;;;;2115762;28;20292;-71
2022/08/08 04:31:48;;;;;;;20.05;18.48;;;;;;;;;;2115396;27;20195;-71
2022/08/08 04:32:48;;;;;;;21.00;19.20;;;;;;;;;;2115569;28;20208;-71
2022/08/08 04:33:50;;;;;;;21.10;19.40;;;;;;;;;;2124235;27;20195;-71
2022/08/08 04:34:50;;;;;;;21.20;19.40;;;;;;;;;;2124061;27;20235;-71
2022/08/08 04:35:51;;;;;;;20.27;18.80;;;;;;;;;;2123811;27;20199;-71
2022/08/08 04:36:54;;;;;;;20.55;18.95;;;;;;;;;;2115946;27;20396;-71
2022/08/08 04:37:56;;;;;;;21.10;19.27;;;;;;;;;;2115351;28;20752;-71
2022/08/08 04:39:04;;;;;;;20.60;18.98;;;;;;;;;;2116735;27;20192;-71
2022/08/08 04:40:06;;;;;;;19.83;18.30;;;;;;;;;;2115599;28;20228;-71
2022/08/08 04:41:10;;;;;;;20.10;18.38;;;;;;;;;;2116143;28;20201;-71
2022/08/08 04:42:12;;;;;;;20.00;18.40;;;;;;;;;;2124255;27;20188;-71
2022/08/08 04:43:13;;;;;;;20.30;18.63;;;;;;;;;;2133391;27;20206;-71
2022/08/08 04:44:19;;;;;;;20.73;18.83;;;;;;;;;;2124099;27;20521;-71
2022/08/08 04:45:19;;;;;;;20.60;18.60;;;;;;;;;;2115526;28;20655;-71
2022/08/08 04:46:21;;;;;;;20.10;18.47;;;;;;;;;;2115490;28;20862;-71
2022/08/08 04:47:24;;;;;;;20.13;18.52;;;;;;;;;;2124342;27;20552;-71
2022/08/08 04:48:25;;;;;;;19.53;18.13;;;;;;;;;;2123993;27;20196;-71
2022/08/08 04:49:26;;;;;;;19.88;17.95;;;;;;;;;;2123934;27;20261;-71
2022/08/08 04:50:27;;;;;;;19.57;17.77;;;;;;;;;;2124253;27;20670;-71
2022/08/08 04:51:28;;;;;;;19.73;18.03;;;;;;;;;;2132637;27;20196;-71
2022/08/08 04:52:30;;;;;;;19.10;17.60;;;;;;;;;;2124146;27;20445;-71
2022/08/08 04:53:30;;;;;;;20.27;18.23;;;;;;;;;;2123875;27;20555;-70
2022/08/08 04:54:33;;;;;;;19.88;18.13;;;;;;;;;;2123916;27;20442;-71
2022/08/08 04:55:34;;;;;;;20.38;18.67;;;;;;;;;;2123948;27;20279;-71
2022/08/08 04:56:37;;;;;;;19.87;18.10;;;;;;;;;;2132669;27;20191;-71
2022/08/08 04:57:39;;;;;;;20.70;18.58;;;;;;;;;;2123860;27;20251;-71
2022/08/08 04:58:42;;;;;;;20.33;18.67;;;;;;;;;;2115611;27;20185;-71
2022/08/08 04:59:44;;;;;;;20.75;18.95;;;;;;;;;;2115622;27;20225;-71
2022/08/08 05:00:46;;;;;;;19.80;17.97;;;;;;;;;;2123839;27;20198;-71
2022/08/08 05:01:46;;;;;;;20.02;18.52;;;;;;;;;;2115425;28;20193;-71
2022/08/08 05:02:48;;;;;;;20.50;18.90;;;;;;;;;;2115628;28;20643;-71
2022/08/08 05:03:48;;;;;;;20.00;18.40;;;;;;;;;;2123897;27;20196;-71
2022/08/08 05:04:50;;;;;;;19.63;18.13;;;;;;;;;;2123784;27;20188;-71
2022/08/08 05:05:51;;;;;;;20.23;18.25;;;;;;;;;;2115269;28;20333;-71
2022/08/08 05:06:52;;;;;;;20.53;18.63;;;;;;;;;;2115411;28;20197;-71
2022/08/08 05:07:53;;;;;;;19.98;18.33;;;;;;;;;;2115510;28;20188;-71
2022/08/08 05:08:56;;;;;;;20.47;18.67;;;;;;;;;;2115026;28;20193;-70
2022/08/08 05:09:58;;;;;;;20.77;18.70;;;;;;;;;;2124268;27;20909;-70
2022/08/08 05:10:59;;;;;;;20.17;18.57;;;;;;;;;;2123773;27;20188;-72
2022/08/08 05:12:02;;;;;;;20.48;18.42;;;;;;;;;;2123826;27;20222;-71
2022/08/08 05:13:06;;;;;;;20.20;18.55;;;;;;;;;;2123802;27;20338;-71
2022/08/08 05:14:10;;;;;;;20.85;19.15;;;;;;;;;;2115629;27;20331;-71
2022/08/08 05:15:11;;;;;;;20.30;18.73;;;;;;;;;;2115269;28;20651;-71
2022/08/08 05:16:12;;;;;;;20.10;18.48;;;;;;;;;;2123709;27;20538;-71
2022/08/08 05:17:13;;;;;;;20.93;18.97;;;;;;;;;;2115266;28;20243;-71
2022/08/08 05:18:14;;;;;;;20.90;19.00;;;;;;;;;;2115219;28;20216;-71
2022/08/08 05:19:15;;;;;;;20.77;18.97;;;;;;;;;;2115200;28;20742;-71
2022/08/08 05:20:16;;;;;;;20.23;18.50;;;;;;;;;;2115110;28;20236;-71
2022/08/08 05:21:18;;;;;;;20.23;18.60;;;;;;;;;;2124332;27;20188;-70
2022/08/08 05:22:20;;;;;;;19.95;18.13;;;;;;;;;;2124302;27;20220;-70
2022/08/08 05:23:24;;;;;;;22.27;19.02;;;;;;;;;;2123730;27;20189;-70
2022/08/08 05:24:25;;;;;;;19.80;18.35;;;;;;;;;;2123895;27;20200;-70
2022/08/08 05:25:27;;;;;;;20.60;19.00;;;;;;;;;;2123731;27;20212;-70
2022/08/08 05:26:27;;;;;;;20.95;19.05;;;;;;;;;;2115274;28;20192;-70
2022/08/08 05:27:31;;;;;;;21.03;19.00;;;;;;;;;;2123643;27;20688;-70
2022/08/08 05:28:31;;;;;;;21.52;19.40;;;;;;;;;;2123816;27;20188;-70
2022/08/08 05:29:33;;;;;;;21.27;19.27;;;;;;;;;;2123777;27;20274;-70
2022/08/08 05:30:33;;;;;;;21.85;19.48;;;;;;;;;;2123655;27;20666;-70
2022/08/08 05:31:36;;;;;;;21.63;19.38;;;;;;;;;;2123565;27;20191;-70
2022/08/08 05:32:37;;;;;;;20.83;19.02;;;;;;;;;;2115107;28;20597;-70
2022/08/08 05:33:41;;;;;;;21.10;19.30;;;;;;;;;;2123774;27;20617;-70
2022/08/08 05:34:46;;;;;;;21.13;19.33;;;;;;;;;;2123654;27;20434;-70
2022/08/08 05:35:46;;;;;;;21.65;19.40;;;;;;;;;;2123637;27;20204;-70
2022/08/08 05:36:49;;;;;;;20.47;18.40;;;;;;;;;;2123820;27;20188;-70
2022/08/08 05:37:52;;;;;;;20.58;18.65;;;;;;;;;;2114753;27;20201;-70
2022/08/08 05:38:56;;;;;;;20.73;18.92;;;;;;;;;;2123800;27;20247;-71
2022/08/08 05:40:00;;;;;;;20.92;19.00;;;;;;;;;;2123951;27;20226;-70
2022/08/08 05:41:03;;;;;;;21.37;19.23;;;;;;;;;;2123557;27;20192;-70
2022/08/08 05:42:07;;;;;;;20.67;18.90;;;;;;;;;;2115535;27;20503;-70
2022/08/08 05:43:11;;;;;;;20.37;18.50;;;;;;;;;;2115203;28;20522;-70
2022/08/08 05:44:12;;;;;;;20.58;18.67;;;;;;;;;;2115208;28;20458;-70
2022/08/08 05:45:13;;;;;;;21.83;19.73;;;;;;;;;;2123510;27;20212;-70
2022/08/08 05:46:16;;;;;;;21.77;19.63;;;;;;;;;;2123558;27;20453;-70
2022/08/08 05:47:19;;;;;;;21.70;19.58;;;;;;;;;;2123607;27;20656;-70
2022/08/08 05:48:20;;;;;;;21.73;19.27;;;;;;;;;;2122770;27;20196;-70
2022/08/08 05:49:22;;;;;;;20.17;18.47;;;;;;;;;;2123764;27;20214;-70
2022/08/08 05:50:24;;;;;;;23.03;19.13;;;;;;;;;;2123184;27;20441;-70
2022/08/08 05:51:26;;;;;;;20.88;18.95;;;;;;;;;;2115150;28;20982;-70
2022/08/08 05:52:29;;;;;;;20.15;18.45;;;;;;;;;;2115428;27;20200;-70
2022/08/08 05:53:31;;;;;;;21.33;18.97;;;;;;;;;;2115125;28;20191;-70
2022/08/08 05:54:33;;;;;;;20.80;18.60;;;;;;;;;;2123623;27;20191;-70
2022/08/08 05:55:35;;;;;;;22.98;19.25;;;;;;;;;;2123488;27;20509;-70
2022/08/08 05:56:37;;;;;;;21.70;19.40;;;;;;;;;;2114975;28;20203;-70
2022/08/08 05:57:38;;;;;;;22.23;19.30;;;;;;;;;;2123614;27;20474;-70
2022/08/08 05:58:43;;;;;;;20.93;19.00;;;;;;;;;;2123338;27;20518;-70
2022/08/08 05:59:49;;;;;;;19.85;18.33;;;;;;;;;;2123273;27;20675;-70
2022/08/08 06:00:57;;;;;;;19.70;18.10;;;;;;;;;;2116470;27;20193;-70
2022/08/08 06:01:59;;;;;;;20.43;18.83;;;;;;;;;;2123587;27;20417;-70
2022/08/08 06:03:10;;;;;;;20.90;18.80;;;;;;;;;;2123325;27;20465;-70
2022/08/08 06:04:22;;;;;;;20.77;18.80;;;;;;;;;;2126335;27;20555;-70
2022/08/08 06:05:23;;;;;;;20.07;18.20;;;;;;;;;;2123335;27;20192;-70
2022/08/08 06:06:27;;;;;;;21.02;18.80;;;;;;;;;;2114975;28;20452;-70
2022/08/08 06:07:28;;;;;;;20.08;18.48;;;;;;;;;;2123711;27;20225;-70
2022/08/08 06:08:30;;;;;;;20.10;18.40;;;;;;;;;;2123338;27;20275;-70
2022/08/08 06:09:36;;;;;;;20.75;18.90;;;;;;;;;;2123308;27;20520;-70
2022/08/08 06:10:39;;;;;;;24.33;19.60;;;;;;;;;;2123344;27;20208;-70
2022/08/08 06:11:42;;;;;;;25.47;19.80;;;;;;;;;;2115100;28;20451;-70
2022/08/08 06:12:43;;;;;;;22.90;19.47;;;;;;;;;;2123363;27;20515;-70
2022/08/08 06:13:46;;;;;;;21.13;19.17;;;;;;;;;;2123752;27;20448;-70
2022/08/08 06:14:46;;;;;;;27.77;20.23;;;;;;;;;;2123481;27;20594;-70
2022/08/08 06:15:48;;;;;;;21.27;19.20;;;;;;;;;;2123277;27;20831;-70
2022/08/08 06:16:52;;;;;;;29.30;19.67;;;;;;;;;;2115135;28;20193;-70
2022/08/08 06:18:00;;;;;;;21.13;19.13;;;;;;;;;;2115639;27;20177;-70
2022/08/08 06:19:01;;;;;;;20.53;18.80;;;;;;;;;;2123332;27;20906;-71
2022/08/08 06:20:07;;;;;;;20.40;18.60;;;;;;;;;;2115362;28;20501;-70
2022/08/08 06:21:07;;;;;;;21.77;18.70;;;;;;;;;;2122562;27;20442;-70
2022/08/08 06:22:09;;;;;;;20.80;18.70;;;;;;;;;;2123395;27;20417;-70
2022/08/08 06:23:16;;;;;;;20.67;18.70;;;;;;;;;;2131945;27;20236;-70
2022/08/08 06:24:18;;;;;;;26.80;19.10;;;;;;;;;;2123336;27;20230;-70
2022/08/08 06:25:20;;;;;;;21.10;19.10;;;;;;;;;;2123288;27;20704;-70
2022/08/08 06:26:22;;;;;;;22.57;19.03;;;;;;;;;;2123354;27;20426;-70
2022/08/08 06:27:29;;;;;;;24.55;18.98;;;;;;;;;;2123311;28;20490;-70
2022/08/08 06:28:32;;;;;;;20.47;18.60;;;;;;;;;;2124323;27;20252;-70
2022/08/08 06:29:38;;;;;;;22.98;18.02;;;;;;;;;;2123487;28;20805;-70
2022/08/08 06:30:42;;;;;;;21.27;18.52;;;;;;;;;;2123795;27;20188;-70
2022/08/08 06:31:42;;;;;;;20.25;18.52;;;;;;;;;;2123379;28;20662;-70
2022/08/08 06:32:45;;;;;;;21.47;18.50;;;;;;;;;;2114800;28;20213;-70
2022/08/08 06:33:49;;;;;;;22.10;18.47;;;;;;;;;;2123288;27;20457;-70
2022/08/08 06:34:53;;;;;;;21.13;18.57;;;;;;;;;;2123301;28;20824;-70
2022/08/08 06:35:56;;;;;;;20.63;18.50;;;;;;;;;;2123177;28;20498;-70
2022/08/08 06:36:58;;;;;;;21.00;19.02;;;;;;;;;;2123469;27;20441;-70